Overview Statistics Trail Chart Weather Telemetry Raw packets
 

This is the latest recevied weather packets stored in our database for station/object TB1YZC-13. If no packets are shown the sender has not sent any weather packets the latest 10 day(s).

<< 25 26 27 28 29 30 31 >>
Time Temp. Humidity Pressure Rain* Wind** Luminosity Snow
1788272801 28.33° C 53% 1016.7 hPa - - - -
1788272197 28.89° C 51% 1016.7 hPa - - - -
1788271594 30.56° C 47% 1016.5 hPa - - - -
1788270991 31.67° C 44% 1016.3 hPa - - - -
1788270388 31.67° C 43% 1016.5 hPa - - - -
1788269784 31.67° C 45% 1016.4 hPa - - - -
1788269181 31.11° C 48% 1016.4 hPa - - - -
1788268578 31.67° C 43% 1016.4 hPa - - - -
1788267975 31.67° C 45% 1016.3 hPa - - - -
1788267372 31.67° C 43% 1016.4 hPa - - - -
1788266768 32.22° C 40% 1016.5 hPa - - - -
1788266165 31.11° C 42% 1016.6 hPa - - - -
1788265561 31.67° C 41% 1016.7 hPa - - - -
1788264958 31.67° C 43% 1016.8 hPa - - - -
1788264355 31.11° C 45% 1017 hPa - - - -
1788263752 31.11° C 46% 1017 hPa - - - -
1788263149 30° C 47% 1017.2 hPa - - - -
1788262546 30.56° C 48% 1017.2 hPa - - - -
1788261943 30° C 49% 1017.3 hPa - - - -
1788261359 29.44° C 51% 1017.4 hPa - - - -
1788260737 28.89° C 51% 1017.5 hPa - - - -
1788260133 28.89° C 51% 1017.5 hPa - - - -
1788259550 28.89° C 52% 1017.9 hPa - - - -
1788258927 28.89° C 53% 1017.6 hPa - - - -
1788258324 28.89° C 52% 1017.6 hPa - - - -

* Rain since midnight (hover to see other rain measurements)
** Current wind speed in m/s (hover to see current wind gust speed)